sensor_id;sensor_type;location;lat;lon;timestamp;temperature;humidity
37240;DHT22;23130;48.760;9.178;2023-07-29T00:01:33;17.40;99.90
37240;DHT22;23130;48.760;9.178;2023-07-29T00:04:00;17.40;99.90
37240;DHT22;23130;48.760;9.178;2023-07-29T00:06:28;17.30;99.90
37240;DHT22;23130;48.760;9.178;2023-07-29T00:08:54;17.30;99.90
37240;DHT22;23130;48.760;9.178;2023-07-29T00:11:20;17.40;99.90
37240;DHT22;23130;48.760;9.178;2023-07-29T00:13:47;17.40;99.90
37240;DHT22;23130;48.760;9.178;2023-07-29T00:16:12;17.30;99.90
37240;DHT22;23130;48.760;9.178;2023-07-29T00:18:42;17.30;99.90
37240;DHT22;23130;48.760;9.178;2023-07-29T00:21:08;17.30;99.90
37240;DHT22;23130;48.760;9.178;2023-07-29T00:23:34;17.20;99.90
37240;DHT22;23130;48.760;9.178;2023-07-29T00:26:00;17.20;99.90
37240;DHT22;23130;48.760;9.178;2023-07-29T00:28:29;17.30;99.90
37240;DHT22;23130;48.760;9.178;2023-07-29T00:30:54;17.40;99.90
37240;DHT22;23130;48.760;9.178;2023-07-29T00:33:21;17.30;99.90
37240;DHT22;23130;48.760;9.178;2023-07-29T00:35:46;17.30;99.90
37240;DHT22;23130;48.760;9.178;2023-07-29T00:38:13;17.30;99.90
37240;DHT22;23130;48.760;9.178;2023-07-29T00:40:39;17.30;99.90
37240;DHT22;23130;48.760;9.178;2023-07-29T00:43:05;17.20;99.90
37240;DHT22;23130;48.760;9.178;2023-07-29T00:45:32;17.20;99.90
37240;DHT22;23130;48.760;9.178;2023-07-29T00:47:58;17.20;99.90
37240;DHT22;23130;48.760;9.178;2023-07-29T00:50:25;17.20;99.90
37240;DHT22;23130;48.760;9.178;2023-07-29T00:52:53;17.20;99.90
37240;DHT22;23130;48.760;9.178;2023-07-29T00:55:19;17.20;99.90
37240;DHT22;23130;48.760;9.178;2023-07-29T00:57:45;17.20;99.90
37240;DHT22;23130;48.760;9.178;2023-07-29T01:00:15;17.20;99.90
37240;DHT22;23130;48.760;9.178;2023-07-29T01:02:42;17.20;99.90
37240;DHT22;23130;48.760;9.178;2023-07-29T01:05:08;17.20;99.90
37240;DHT22;23130;48.760;9.178;2023-07-29T01:08:04;17.30;99.90
37240;DHT22;23130;48.760;9.178;2023-07-29T01:10:40;17.30;99.90
37240;DHT22;23130;48.760;9.178;2023-07-29T01:13:37;17.30;99.90
37240;DHT22;23130;48.760;9.178;2023-07-29T01:16:27;17.30;99.90
37240;DHT22;23130;48.760;9.178;2023-07-29T01:18:55;17.30;99.90
37240;DHT22;23130;48.760;9.178;2023-07-29T01:21:26;17.30;99.90
37240;DHT22;23130;48.760;9.178;2023-07-29T01:23:52;17.30;99.90
37240;DHT22;23130;48.760;9.178;2023-07-29T01:26:20;17.20;99.90
37240;DHT22;23130;48.760;9.178;2023-07-29T01:28:46;17.20;99.90
37240;DHT22;23130;48.760;9.178;2023-07-29T01:31:27;17.30;99.90
37240;DHT22;23130;48.760;9.178;2023-07-29T01:36:51;17.30;99.90
37240;DHT22;23130;48.760;9.178;2023-07-29T01:39:18;17.30;99.90
37240;DHT22;23130;48.760;9.178;2023-07-29T01:41:45;17.30;99.90
37240;DHT22;23130;48.760;9.178;2023-07-29T01:44:15;17.30;99.90
37240;DHT22;23130;48.760;9.178;2023-07-29T01:46:43;17.40;99.90
37240;DHT22;23130;48.760;9.178;2023-07-29T01:49:09;17.40;99.90
37240;DHT22;23130;48.760;9.178;2023-07-29T01:51:36;17.40;99.90
37240;DHT22;23130;48.760;9.178;2023-07-29T01:54:02;17.40;99.90
37240;DHT22;23130;48.760;9.178;2023-07-29T01:56:28;17.40;99.90
37240;DHT22;23130;48.760;9.178;2023-07-29T01:58:53;17.50;99.90
37240;DHT22;23130;48.760;9.178;2023-07-29T02:01:19;17.50;99.90
37240;DHT22;23130;48.760;9.178;2023-07-29T02:03:45;17.50;99.90
37240;DHT22;23130;48.760;9.178;2023-07-29T02:06:10;17.50;99.90
37240;DHT22;23130;48.760;9.178;2023-07-29T02:08:36;17.40;99.90
37240;DHT22;23130;48.760;9.178;2023-07-29T02:11:02;17.40;99.90
37240;DHT22;23130;48.760;9.178;2023-07-29T02:13:27;17.30;99.90
37240;DHT22;23130;48.760;9.178;2023-07-29T02:15:53;17.40;99.90
37240;DHT22;23130;48.760;9.178;2023-07-29T02:18:20;17.30;99.90
37240;DHT22;23130;48.760;9.178;2023-07-29T02:20:46;17.30;99.90
37240;DHT22;23130;48.760;9.178;2023-07-29T02:23:15;17.30;99.90
37240;DHT22;23130;48.760;9.178;2023-07-29T02:25:44;17.30;99.90
37240;DHT22;23130;48.760;9.178;2023-07-29T02:28:11;17.20;99.90
37240;DHT22;23130;48.760;9.178;2023-07-29T02:30:41;17.20;99.90
37240;DHT22;23130;48.760;9.178;2023-07-29T02:36:28;17.20;99.90
37240;DHT22;23130;48.760;9.178;2023-07-29T02:38:56;17.20;99.90
37240;DHT22;23130;48.760;9.178;2023-07-29T02:41:21;17.20;99.90
37240;DHT22;23130;48.760;9.178;2023-07-29T02:43:50;17.30;99.90
37240;DHT22;23130;48.760;9.178;2023-07-29T02:46:17;17.30;99.90
37240;DHT22;23130;48.760;9.178;2023-07-29T02:48:45;17.30;99.90
37240;DHT22;23130;48.760;9.178;2023-07-29T02:51:11;17.40;99.90
37240;DHT22;23130;48.760;9.178;2023-07-29T02:53:37;17.30;99.90
37240;DHT22;23130;48.760;9.178;2023-07-29T02:56:04;17.40;99.90
37240;DHT22;23130;48.760;9.178;2023-07-29T02:58:29;17.40;99.90
37240;DHT22;23130;48.760;9.178;2023-07-29T03:01:02;17.30;99.90
37240;DHT22;23130;48.760;9.178;2023-07-29T03:03:29;17.30;99.90
37240;DHT22;23130;48.760;9.178;2023-07-29T03:06:04;17.30;99.90
37240;DHT22;23130;48.760;9.178;2023-07-29T03:08:34;17.30;99.90
37240;DHT22;23130;48.760;9.178;2023-07-29T03:11:07;17.30;99.90
37240;DHT22;23130;48.760;9.178;2023-07-29T03:13:33;17.20;99.90
37240;DHT22;23130;48.760;9.178;2023-07-29T03:16:13;17.20;99.90
37240;DHT22;23130;48.760;9.178;2023-07-29T03:18:40;17.20;99.90
37240;DHT22;23130;48.760;9.178;2023-07-29T03:21:06;17.20;99.90
37240;DHT22;23130;48.760;9.178;2023-07-29T03:23:33;17.10;99.90
37240;DHT22;23130;48.760;9.178;2023-07-29T03:26:00;17.20;99.90
37240;DHT22;23130;48.760;9.178;2023-07-29T03:28:33;17.20;99.90
37240;DHT22;23130;48.760;9.178;2023-07-29T03:30:59;17.20;99.90
37240;DHT22;23130;48.760;9.178;2023-07-29T03:33:26;17.20;99.90
37240;DHT22;23130;48.760;9.178;2023-07-29T03:35:52;17.20;99.90
37240;DHT22;23130;48.760;9.178;2023-07-29T03:38:18;17.20;99.90
37240;DHT22;23130;48.760;9.178;2023-07-29T03:40:45;17.20;99.90
37240;DHT22;23130;48.760;9.178;2023-07-29T03:43:13;17.20;99.90
37240;DHT22;23130;48.760;9.178;2023-07-29T03:45:41;17.30;99.90
37240;DHT22;23130;48.760;9.178;2023-07-29T03:48:08;17.40;99.90
37240;DHT22;23130;48.760;9.178;2023-07-29T03:50:36;17.40;99.90
37240;DHT22;23130;48.760;9.178;2023-07-29T03:53:04;17.40;99.90
37240;DHT22;23130;48.760;9.178;2023-07-29T03:55:30;17.30;99.90
37240;DHT22;23130;48.760;9.178;2023-07-29T03:58:00;17.40;99.90
37240;DHT22;23130;48.760;9.178;2023-07-29T04:00:27;17.30;99.90
37240;DHT22;23130;48.760;9.178;2023-07-29T04:02:54;17.40;99.90
37240;DHT22;23130;48.760;9.178;2023-07-29T04:05:20;17.30;99.90
37240;DHT22;23130;48.760;9.178;2023-07-29T04:07:46;17.30;99.90
37240;DHT22;23130;48.760;9.178;2023-07-29T04:10:13;17.30;99.90
37240;DHT22;23130;48.760;9.178;2023-07-29T04:12:38;17.20;99.90
37240;DHT22;23130;48.760;9.178;2023-07-29T04:15:05;17.10;99.90
37240;DHT22;23130;48.760;9.178;2023-07-29T04:17:31;17.10;99.90
37240;DHT22;23130;48.760;9.178;2023-07-29T04:19:57;17.00;99.90
37240;DHT22;23130;48.760;9.178;2023-07-29T04:22:23;17.00;99.90
37240;DHT22;23130;48.760;9.178;2023-07-29T04:24:50;17.00;99.90
37240;DHT22;23130;48.760;9.178;2023-07-29T04:27:17;16.90;99.90
37240;DHT22;23130;48.760;9.178;2023-07-29T04:29:43;16.90;99.90
37240;DHT22;23130;48.760;9.178;2023-07-29T04:32:09;16.90;99.90
37240;DHT22;23130;48.760;9.178;2023-07-29T04:34:35;16.90;99.90
37240;DHT22;23130;48.760;9.178;2023-07-29T04:37:01;16.90;99.90
37240;DHT22;23130;48.760;9.178;2023-07-29T04:39:29;16.80;99.90
37240;DHT22;23130;48.760;9.178;2023-07-29T04:41:54;16.80;99.90
37240;DHT22;23130;48.760;9.178;2023-07-29T04:44:20;16.90;99.90
37240;DHT22;23130;48.760;9.178;2023-07-29T04:46:46;16.80;99.90
37240;DHT22;23130;48.760;9.178;2023-07-29T04:49:11;16.80;99.90
37240;DHT22;23130;48.760;9.178;2023-07-29T04:51:38;16.80;99.90
37240;DHT22;23130;48.760;9.178;2023-07-29T04:54:05;16.80;99.90
37240;DHT22;23130;48.760;9.178;2023-07-29T04:56:30;16.80;99.90
37240;DHT22;23130;48.760;9.178;2023-07-29T04:58:57;16.80;99.90
37240;DHT22;23130;48.760;9.178;2023-07-29T05:01:22;16.80;99.90
37240;DHT22;23130;48.760;9.178;2023-07-29T05:03:50;16.90;99.90
37240;DHT22;23130;48.760;9.178;2023-07-29T05:06:15;16.80;99.90
37240;DHT22;23130;48.760;9.178;2023-07-29T05:08:42;16.90;99.90
37240;DHT22;23130;48.760;9.178;2023-07-29T05:11:08;16.90;99.90
37240;DHT22;23130;48.760;9.178;2023-07-29T05:13:34;16.90;99.90
37240;DHT22;23130;48.760;9.178;2023-07-29T05:16:00;16.90;99.90
37240;DHT22;23130;48.760;9.178;2023-07-29T05:18:27;16.90;99.90
37240;DHT22;23130;48.760;9.178;2023-07-29T05:20:54;17.00;99.90
37240;DHT22;23130;48.760;9.178;2023-07-29T05:23:19;17.10;99.90
37240;DHT22;23130;48.760;9.178;2023-07-29T05:25:46;17.20;99.90
37240;DHT22;23130;48.760;9.178;2023-07-29T05:28:12;17.20;99.90
37240;DHT22;23130;48.760;9.178;2023-07-29T05:30:38;17.30;99.90
37240;DHT22;23130;48.760;9.178;2023-07-29T05:33:05;17.30;99.90
37240;DHT22;23130;48.760;9.178;2023-07-29T05:35:33;17.40;99.90
37240;DHT22;23130;48.760;9.178;2023-07-29T05:38:00;17.40;99.90
37240;DHT22;23130;48.760;9.178;2023-07-29T05:40:25;17.50;99.90
37240;DHT22;23130;48.760;9.178;2023-07-29T05:42:51;17.50;99.90
37240;DHT22;23130;48.760;9.178;2023-07-29T05:45:16;17.60;99.90
37240;DHT22;23130;48.760;9.178;2023-07-29T05:47:42;17.60;99.90
37240;DHT22;23130;48.760;9.178;2023-07-29T05:50:08;17.80;99.90
37240;DHT22;23130;48.760;9.178;2023-07-29T05:52:38;17.80;99.90
37240;DHT22;23130;48.760;9.178;2023-07-29T05:55:04;18.00;99.90
37240;DHT22;23130;48.760;9.178;2023-07-29T05:57:29;18.20;99.90
37240;DHT22;23130;48.760;9.178;2023-07-29T05:59:56;18.70;99.90
37240;DHT22;23130;48.760;9.178;2023-07-29T06:02:22;19.00;99.90
37240;DHT22;23130;48.760;9.178;2023-07-29T06:04:48;19.10;99.90
37240;DHT22;23130;48.760;9.178;2023-07-29T06:07:14;19.20;99.90
37240;DHT22;23130;48.760;9.178;2023-07-29T06:09:40;19.40;99.90
37240;DHT22;23130;48.760;9.178;2023-07-29T06:12:06;19.70;99.90
37240;DHT22;23130;48.760;9.178;2023-07-29T06:14:32;20.40;99.90
37240;DHT22;23130;48.760;9.178;2023-07-29T06:16:57;20.60;99.90
37240;DHT22;23130;48.760;9.178;2023-07-29T06:19:24;20.50;99.90
37240;DHT22;23130;48.760;9.178;2023-07-29T06:21:50;20.40;99.90
37240;DHT22;23130;48.760;9.178;2023-07-29T06:24:17;20.40;99.90
37240;DHT22;23130;48.760;9.178;2023-07-29T06:26:45;20.40;99.90
37240;DHT22;23130;48.760;9.178;2023-07-29T06:29:12;20.40;99.90
37240;DHT22;23130;48.760;9.178;2023-07-29T06:31:37;20.50;99.90
37240;DHT22;23130;48.760;9.178;2023-07-29T06:34:03;20.50;99.90
37240;DHT22;23130;48.760;9.178;2023-07-29T06:36:28;20.30;99.90
37240;DHT22;23130;48.760;9.178;2023-07-29T06:38:54;20.20;99.90
37240;DHT22;23130;48.760;9.178;2023-07-29T06:41:20;20.00;99.90
37240;DHT22;23130;48.760;9.178;2023-07-29T06:43:48;19.90;99.90
37240;DHT22;23130;48.760;9.178;2023-07-29T06:46:14;19.70;99.90
37240;DHT22;23130;48.760;9.178;2023-07-29T06:48:39;19.50;99.90
37240;DHT22;23130;48.760;9.178;2023-07-29T06:51:05;19.50;99.90
37240;DHT22;23130;48.760;9.178;2023-07-29T06:53:30;19.50;99.90
37240;DHT22;23130;48.760;9.178;2023-07-29T06:55:58;19.50;99.90
37240;DHT22;23130;48.760;9.178;2023-07-29T06:58:24;19.40;99.90
37240;DHT22;23130;48.760;9.178;2023-07-29T07:00:49;19.30;99.90
37240;DHT22;23130;48.760;9.178;2023-07-29T07:03:15;19.10;99.90
37240;DHT22;23130;48.760;9.178;2023-07-29T07:05:45;18.90;99.90
37240;DHT22;23130;48.760;9.178;2023-07-29T07:08:10;18.80;99.90
37240;DHT22;23130;48.760;9.178;2023-07-29T07:10:36;18.60;99.90
37240;DHT22;23130;48.760;9.178;2023-07-29T07:13:01;18.50;99.90
37240;DHT22;23130;48.760;9.178;2023-07-29T07:15:33;18.40;99.90
37240;DHT22;23130;48.760;9.178;2023-07-29T07:18:01;18.30;99.90
37240;DHT22;23130;48.760;9.178;2023-07-29T07:20:26;18.30;99.90
37240;DHT22;23130;48.760;9.178;2023-07-29T07:22:52;18.20;99.90
37240;DHT22;23130;48.760;9.178;2023-07-29T07:25:17;18.20;99.90
37240;DHT22;23130;48.760;9.178;2023-07-29T07:27:43;18.20;99.90
37240;DHT22;23130;48.760;9.178;2023-07-29T07:30:09;18.20;99.90
37240;DHT22;23130;48.760;9.178;2023-07-29T07:32:36;18.30;99.90
37240;DHT22;23130;48.760;9.178;2023-07-29T07:35:01;18.30;99.90
37240;DHT22;23130;48.760;9.178;2023-07-29T07:37:27;18.40;99.90
37240;DHT22;23130;48.760;9.178;2023-07-29T07:39:53;18.50;99.90
37240;DHT22;23130;48.760;9.178;2023-07-29T07:42:18;18.60;99.90
37240;DHT22;23130;48.760;9.178;2023-07-29T07:44:44;18.80;99.90
37240;DHT22;23130;48.760;9.178;2023-07-29T07:47:09;18.90;99.90
37240;DHT22;23130;48.760;9.178;2023-07-29T07:49:35;19.00;99.90
37240;DHT22;23130;48.760;9.178;2023-07-29T07:52:00;19.10;99.90
37240;DHT22;23130;48.760;9.178;2023-07-29T07:54:26;19.20;99.90
37240;DHT22;23130;48.760;9.178;2023-07-29T07:56:51;19.30;99.90
37240;DHT22;23130;48.760;9.178;2023-07-29T07:59:19;19.30;99.90
37240;DHT22;23130;48.760;9.178;2023-07-29T08:01:45;19.40;99.90
37240;DHT22;23130;48.760;9.178;2023-07-29T08:04:13;19.40;99.90
37240;DHT22;23130;48.760;9.178;2023-07-29T08:06:39;19.60;99.90
37240;DHT22;23130;48.760;9.178;2023-07-29T08:09:04;19.60;99.90
37240;DHT22;23130;48.760;9.178;2023-07-29T08:11:31;19.70;99.90
37240;DHT22;23130;48.760;9.178;2023-07-29T08:13:58;19.80;99.90
37240;DHT22;23130;48.760;9.178;2023-07-29T08:16:24;19.90;99.90
37240;DHT22;23130;48.760;9.178;2023-07-29T08:18:51;20.10;99.90
37240;DHT22;23130;48.760;9.178;2023-07-29T08:21:17;20.40;99.90
37240;DHT22;23130;48.760;9.178;2023-07-29T08:23:43;20.60;99.90
37240;DHT22;23130;48.760;9.178;2023-07-29T08:26:08;20.90;99.90
37240;DHT22;23130;48.760;9.178;2023-07-29T08:28:39;21.00;99.90
37240;DHT22;23130;48.760;9.178;2023-07-29T08:31:05;21.10;99.90
37240;DHT22;23130;48.760;9.178;2023-07-29T08:33:31;21.20;99.90
37240;DHT22;23130;48.760;9.178;2023-07-29T08:35:59;21.20;99.90
37240;DHT22;23130;48.760;9.178;2023-07-29T08:38:26;21.30;99.90
37240;DHT22;23130;48.760;9.178;2023-07-29T08:43:29;21.50;99.90
37240;DHT22;23130;48.760;9.178;2023-07-29T08:45:57;21.70;99.90
37240;DHT22;23130;48.760;9.178;2023-07-29T08:48:32;21.80;99.90
37240;DHT22;23130;48.760;9.178;2023-07-29T08:51:01;21.90;99.90
37240;DHT22;23130;48.760;9.178;2023-07-29T08:53:28;22.20;99.90
37240;DHT22;23130;48.760;9.178;2023-07-29T08:55:54;22.50;99.90
37240;DHT22;23130;48.760;9.178;2023-07-29T08:58:21;23.00;99.90
37240;DHT22;23130;48.760;9.178;2023-07-29T09:00:48;23.50;99.90
37240;DHT22;23130;48.760;9.178;2023-07-29T09:03:14;23.80;99.90
37240;DHT22;23130;48.760;9.178;2023-07-29T09:05:41;24.10;99.90
37240;DHT22;23130;48.760;9.178;2023-07-29T09:08:06;24.30;99.90
37240;DHT22;23130;48.760;9.178;2023-07-29T09:10:36;24.50;99.90
37240;DHT22;23130;48.760;9.178;2023-07-29T09:13:05;24.70;99.90
37240;DHT22;23130;48.760;9.178;2023-07-29T09:15:33;24.90;99.90
37240;DHT22;23130;48.760;9.178;2023-07-29T09:18:10;24.80;99.90
37240;DHT22;23130;48.760;9.178;2023-07-29T09:20:37;24.60;99.90
37240;DHT22;23130;48.760;9.178;2023-07-29T09:23:03;24.60;99.90
37240;DHT22;23130;48.760;9.178;2023-07-29T09:25:32;24.70;99.90
37240;DHT22;23130;48.760;9.178;2023-07-29T09:28:02;24.60;99.90
37240;DHT22;23130;48.760;9.178;2023-07-29T09:30:32;24.80;99.90
37240;DHT22;23130;48.760;9.178;2023-07-29T09:32:58;24.60;99.90
37240;DHT22;23130;48.760;9.178;2023-07-29T09:35:27;24.60;99.90
37240;DHT22;23130;48.760;9.178;2023-07-29T09:37:55;24.80;99.90
37240;DHT22;23130;48.760;9.178;2023-07-29T09:40:21;24.80;99.90
37240;DHT22;23130;48.760;9.178;2023-07-29T09:42:51;24.90;99.90
37240;DHT22;23130;48.760;9.178;2023-07-29T09:45:25;25.20;99.90
37240;DHT22;23130;48.760;9.178;2023-07-29T09:47:52;25.20;99.90
37240;DHT22;23130;48.760;9.178;2023-07-29T09:50:18;25.20;99.90
37240;DHT22;23130;48.760;9.178;2023-07-29T09:52:44;25.30;99.90
37240;DHT22;23130;48.760;9.178;2023-07-29T09:55:17;25.40;99.90
37240;DHT22;23130;48.760;9.178;2023-07-29T09:57:43;25.60;99.90
37240;DHT22;23130;48.760;9.178;2023-07-29T10:00:11;25.80;99.90
37240;DHT22;23130;48.760;9.178;2023-07-29T10:02:42;25.60;99.90
37240;DHT22;23130;48.760;9.178;2023-07-29T10:05:09;25.90;99.90
37240;DHT22;23130;48.760;9.178;2023-07-29T10:07:38;26.30;99.90
37240;DHT22;23130;48.760;9.178;2023-07-29T10:10:06;26.60;99.90
37240;DHT22;23130;48.760;9.178;2023-07-29T10:12:32;26.70;99.90
37240;DHT22;23130;48.760;9.178;2023-07-29T10:15:04;26.70;99.90
37240;DHT22;23130;48.760;9.178;2023-07-29T10:17:30;26.90;99.90
37240;DHT22;23130;48.760;9.178;2023-07-29T10:19:58;27.20;99.90
37240;DHT22;23130;48.760;9.178;2023-07-29T10:22:27;27.60;99.90
37240;DHT22;23130;48.760;9.178;2023-07-29T10:24:56;27.50;99.90
37240;DHT22;23130;48.760;9.178;2023-07-29T10:27:25;27.30;99.90
37240;DHT22;23130;48.760;9.178;2023-07-29T10:29:55;27.00;99.90
37240;DHT22;23130;48.760;9.178;2023-07-29T10:32:24;26.80;99.90
37240;DHT22;23130;48.760;9.178;2023-07-29T10:34:50;27.00;99.90
37240;DHT22;23130;48.760;9.178;2023-07-29T10:37:16;26.90;99.90
37240;DHT22;23130;48.760;9.178;2023-07-29T10:39:53;26.80;99.90
37240;DHT22;23130;48.760;9.178;2023-07-29T10:42:22;26.70;99.90
37240;DHT22;23130;48.760;9.178;2023-07-29T10:44:52;26.90;99.90
37240;DHT22;23130;48.760;9.178;2023-07-29T10:47:26;26.80;99.90
37240;DHT22;23130;48.760;9.178;2023-07-29T10:49:57;26.60;99.90
37240;DHT22;23130;48.760;9.178;2023-07-29T10:52:42;26.20;99.90
37240;DHT22;23130;48.760;9.178;2023-07-29T10:55:30;26.20;99.90
37240;DHT22;23130;48.760;9.178;2023-07-29T10:58:14;26.30;99.90
37240;DHT22;23130;48.760;9.178;2023-07-29T11:00:43;26.50;99.90
37240;DHT22;23130;48.760;9.178;2023-07-29T11:03:10;26.20;99.90
37240;DHT22;23130;48.760;9.178;2023-07-29T11:05:49;26.00;99.90
37240;DHT22;23130;48.760;9.178;2023-07-29T11:08:29;25.90;99.90
37240;DHT22;23130;48.760;9.178;2023-07-29T11:11:03;26.00;99.90
37240;DHT22;23130;48.760;9.178;2023-07-29T11:13:34;25.90;99.90
37240;DHT22;23130;48.760;9.178;2023-07-29T11:16:01;25.90;99.90
37240;DHT22;23130;48.760;9.178;2023-07-29T11:18:28;26.00;99.90
37240;DHT22;23130;48.760;9.178;2023-07-29T11:20:56;25.90;99.90
37240;DHT22;23130;48.760;9.178;2023-07-29T11:23:31;25.90;99.90
37240;DHT22;23130;48.760;9.178;2023-07-29T11:25:58;26.10;99.90
37240;DHT22;23130;48.760;9.178;2023-07-29T11:28:25;26.10;99.90
37240;DHT22;23130;48.760;9.178;2023-07-29T11:30:51;26.00;99.90
37240;DHT22;23130;48.760;9.178;2023-07-29T11:33:26;25.90;99.90
37240;DHT22;23130;48.760;9.178;2023-07-29T11:35:55;25.90;99.90
37240;DHT22;23130;48.760;9.178;2023-07-29T11:38:22;26.00;99.90
37240;DHT22;23130;48.760;9.178;2023-07-29T11:41:01;26.00;99.90
37240;DHT22;23130;48.760;9.178;2023-07-29T11:43:29;26.20;99.90
37240;DHT22;23130;48.760;9.178;2023-07-29T11:45:55;26.30;99.90
37240;DHT22;23130;48.760;9.178;2023-07-29T11:48:30;26.40;99.90
37240;DHT22;23130;48.760;9.178;2023-07-29T11:50:56;26.40;99.90
37240;DHT22;23130;48.760;9.178;2023-07-29T11:53:22;26.50;99.90
37240;DHT22;23130;48.760;9.178;2023-07-29T11:55:51;26.70;99.90
37240;DHT22;23130;48.760;9.178;2023-07-29T11:58:18;27.20;99.90
37240;DHT22;23130;48.760;9.178;2023-07-29T12:00:44;27.70;99.90
37240;DHT22;23130;48.760;9.178;2023-07-29T12:03:09;27.80;99.90
37240;DHT22;23130;48.760;9.178;2023-07-29T12:05:36;28.00;99.90
37240;DHT22;23130;48.760;9.178;2023-07-29T12:08:02;28.20;99.90
37240;DHT22;23130;48.760;9.178;2023-07-29T12:10:27;28.10;99.90
37240;DHT22;23130;48.760;9.178;2023-07-29T12:12:53;28.20;99.90
37240;DHT22;23130;48.760;9.178;2023-07-29T12:15:29;27.90;99.90
37240;DHT22;23130;48.760;9.178;2023-07-29T12:17:57;27.70;99.90
37240;DHT22;23130;48.760;9.178;2023-07-29T12:20:23;28.00;99.90
37240;DHT22;23130;48.760;9.178;2023-07-29T12:22:54;27.90;99.90
37240;DHT22;23130;48.760;9.178;2023-07-29T12:25:19;28.00;99.90
37240;DHT22;23130;48.760;9.178;2023-07-29T12:27:45;28.00;99.90
37240;DHT22;23130;48.760;9.178;2023-07-29T12:30:13;27.80;99.90
37240;DHT22;23130;48.760;9.178;2023-07-29T12:32:45;28.00;99.90
37240;DHT22;23130;48.760;9.178;2023-07-29T12:35:11;28.30;99.90
37240;DHT22;23130;48.760;9.178;2023-07-29T12:37:38;28.50;99.90
37240;DHT22;23130;48.760;9.178;2023-07-29T12:40:31;28.40;99.90
37240;DHT22;23130;48.760;9.178;2023-07-29T12:42:59;28.30;99.90
37240;DHT22;23130;48.760;9.178;2023-07-29T12:45:26;28.60;99.90
37240;DHT22;23130;48.760;9.178;2023-07-29T12:47:53;28.50;99.90
37240;DHT22;23130;48.760;9.178;2023-07-29T12:50:20;28.70;99.90
37240;DHT22;23130;48.760;9.178;2023-07-29T12:52:48;28.60;99.90
37240;DHT22;23130;48.760;9.178;2023-07-29T12:55:16;28.50;99.90
37240;DHT22;23130;48.760;9.178;2023-07-29T12:57:42;28.10;99.90
37240;DHT22;23130;48.760;9.178;2023-07-29T13:00:09;27.70;99.90
37240;DHT22;23130;48.760;9.178;2023-07-29T13:02:36;27.60;99.90
37240;DHT22;23130;48.760;9.178;2023-07-29T13:05:01;27.60;99.90
37240;DHT22;23130;48.760;9.178;2023-07-29T13:07:31;27.50;99.90
37240;DHT22;23130;48.760;9.178;2023-07-29T13:09:58;27.60;99.90
37240;DHT22;23130;48.760;9.178;2023-07-29T13:12:25;27.30;99.90
37240;DHT22;23130;48.760;9.178;2023-07-29T13:14:52;27.40;99.90
37240;DHT22;23130;48.760;9.178;2023-07-29T13:17:19;27.40;99.90
37240;DHT22;23130;48.760;9.178;2023-07-29T13:19:45;27.40;99.90
37240;DHT22;23130;48.760;9.178;2023-07-29T13:22:11;27.20;99.90
37240;DHT22;23130;48.760;9.178;2023-07-29T13:24:38;27.20;99.90
37240;DHT22;23130;48.760;9.178;2023-07-29T13:27:03;27.20;99.90
37240;DHT22;23130;48.760;9.178;2023-07-29T13:29:29;27.20;99.90
37240;DHT22;23130;48.760;9.178;2023-07-29T13:31:54;27.30;99.90
37240;DHT22;23130;48.760;9.178;2023-07-29T13:34:21;27.20;99.90
37240;DHT22;23130;48.760;9.178;2023-07-29T13:36:47;27.20;99.90
37240;DHT22;23130;48.760;9.178;2023-07-29T13:39:13;27.10;99.90
37240;DHT22;23130;48.760;9.178;2023-07-29T13:41:38;27.20;99.90
37240;DHT22;23130;48.760;9.178;2023-07-29T13:44:04;27.40;99.90
37240;DHT22;23130;48.760;9.178;2023-07-29T13:46:29;27.50;99.90
37240;DHT22;23130;48.760;9.178;2023-07-29T13:48:56;27.70;99.90
37240;DHT22;23130;48.760;9.178;2023-07-29T13:51:22;27.70;99.90
37240;DHT22;23130;48.760;9.178;2023-07-29T13:53:49;27.60;99.90
37240;DHT22;23130;48.760;9.178;2023-07-29T13:56:16;27.70;99.90
37240;DHT22;23130;48.760;9.178;2023-07-29T13:58:42;27.80;99.90
37240;DHT22;23130;48.760;9.178;2023-07-29T14:01:07;27.70;99.90
37240;DHT22;23130;48.760;9.178;2023-07-29T14:03:33;27.60;99.90
37240;DHT22;23130;48.760;9.178;2023-07-29T14:05:58;27.60;99.90
37240;DHT22;23130;48.760;9.178;2023-07-29T14:08:24;27.70;99.90
37240;DHT22;23130;48.760;9.178;2023-07-29T14:10:50;27.80;99.90
37240;DHT22;23130;48.760;9.178;2023-07-29T14:13:16;27.80;99.90
37240;DHT22;23130;48.760;9.178;2023-07-29T14:15:42;27.90;99.90
37240;DHT22;23130;48.760;9.178;2023-07-29T14:18:07;27.60;99.90
37240;DHT22;23130;48.760;9.178;2023-07-29T14:20:33;27.50;99.90
37240;DHT22;23130;48.760;9.178;2023-07-29T14:22:59;27.50;99.90
37240;DHT22;23130;48.760;9.178;2023-07-29T14:25:24;27.40;99.90
37240;DHT22;23130;48.760;9.178;2023-07-29T14:27:50;27.30;99.90
37240;DHT22;23130;48.760;9.178;2023-07-29T14:30:16;27.30;99.90
37240;DHT22;23130;48.760;9.178;2023-07-29T14:32:43;27.30;99.90
37240;DHT22;23130;48.760;9.178;2023-07-29T14:35:11;27.40;99.90
37240;DHT22;23130;48.760;9.178;2023-07-29T14:37:38;27.30;99.90
37240;DHT22;23130;48.760;9.178;2023-07-29T14:40:05;26.90;99.90
37240;DHT22;23130;48.760;9.178;2023-07-29T14:42:35;26.70;99.90
37240;DHT22;23130;48.760;9.178;2023-07-29T14:45:01;26.60;99.90
37240;DHT22;23130;48.760;9.178;2023-07-29T14:47:27;26.50;99.90
37240;DHT22;23130;48.760;9.178;2023-07-29T14:49:53;26.40;99.90
37240;DHT22;23130;48.760;9.178;2023-07-29T14:52:18;26.30;99.90
37240;DHT22;23130;48.760;9.178;2023-07-29T14:54:44;26.20;99.90
37240;DHT22;23130;48.760;9.178;2023-07-29T14:57:10;26.20;99.90
37240;DHT22;23130;48.760;9.178;2023-07-29T14:59:36;26.20;99.90
37240;DHT22;23130;48.760;9.178;2023-07-29T15:02:02;26.20;99.90
37240;DHT22;23130;48.760;9.178;2023-07-29T15:04:27;26.40;99.90
37240;DHT22;23130;48.760;9.178;2023-07-29T15:06:54;26.70;99.90
37240;DHT22;23130;48.760;9.178;2023-07-29T15:09:20;26.70;99.90
37240;DHT22;23130;48.760;9.178;2023-07-29T15:11:46;26.90;99.90
37240;DHT22;23130;48.760;9.178;2023-07-29T15:14:13;26.70;99.90
37240;DHT22;23130;48.760;9.178;2023-07-29T15:16:39;26.70;99.90
37240;DHT22;23130;48.760;9.178;2023-07-29T15:19:04;26.60;99.90
37240;DHT22;23130;48.760;9.178;2023-07-29T15:21:31;26.50;99.90
37240;DHT22;23130;48.760;9.178;2023-07-29T15:23:59;26.50;99.90
37240;DHT22;23130;48.760;9.178;2023-07-29T15:26:25;26.50;99.90
37240;DHT22;23130;48.760;9.178;2023-07-29T15:28:51;26.60;99.90
37240;DHT22;23130;48.760;9.178;2023-07-29T15:31:18;26.70;99.90
37240;DHT22;23130;48.760;9.178;2023-07-29T15:33:44;26.70;99.90
37240;DHT22;23130;48.760;9.178;2023-07-29T15:36:09;26.80;99.90
37240;DHT22;23130;48.760;9.178;2023-07-29T15:38:36;26.70;99.90
37240;DHT22;23130;48.760;9.178;2023-07-29T15:41:03;27.00;99.90